Time;durP1;ratioP1;P1;durP2;ratioP2;P2;SDS_P1;SDS_P2;PMS_P1;PMS_P2;Temp;Humidity;BMP_temperature;BMP_pressure;BME280_temperature;BME280_humidity;BME280_pressure;Samples;Min_cycle;Max_cycle;Signal;HPM_P1;HPM_P2
2023/07/06 00:00:52;;;;;;;;;;;;;;;;;;5031076;28;19921;-65
2023/07/06 00:03:18;;;;;;;;;;;;;;;;;;5040617;28;19931;-65
2023/07/06 00:05:44;;;;;;;;;;;;;;;;;;5050684;28;19925;-66
2023/07/06 00:08:11;;;;;;;;;;;;;;;;;;5052259;28;20013;-65
2023/07/06 00:10:39;;;;;;;;;;;;;;;;;;5052420;28;19924;-65
2023/07/06 00:13:05;;;;;;;;;;;;;;;;;;5035932;28;20011;-65
2023/07/06 00:15:31;;;;;;;;;;;;;;;;;;5050006;28;20024;-65
2023/07/06 00:17:58;;;;;;;;;;;;;;;;;;5048254;28;19921;-65
2023/07/06 00:20:24;;;;;;;;;;;;;;;;;;5049606;28;20013;-65
2023/07/06 00:22:50;;;;;;;;;;;;;;;;;;5050880;28;20007;-65
2023/07/06 00:25:16;;;;;;;;;;;;;;;;;;5049896;28;19920;-65
2023/07/06 00:27:43;;;;;;;;;;;;;;;;;;5048267;28;20510;-65
2023/07/06 00:30:17;;;;;;;;;;;;;;;;;;5046556;28;20321;-65
2023/07/06 00:32:44;;;;;;;;;;;;;;;;;;5042531;28;19936;-66
2023/07/06 00:35:10;;;;;;;;;;;;;;;;;;5049839;28;19952;-65
2023/07/06 00:37:38;;;;;;;;;;;;;;;;;;5041032;28;19929;-65
2023/07/06 00:40:08;;;;;;;;;;;;;;;;;;5049870;28;19925;-65
2023/07/06 00:42:33;;;;;;;;;;;;;;;;;;5050031;28;20382;-65
2023/07/06 00:44:59;;;;;;;;;;;;;;;;;;5050998;28;19968;-65
2023/07/06 00:47:25;;;;;;;;;;;;;;;;;;5048527;28;19951;-65
2023/07/06 00:49:51;;;;;;;;;;;;;;;;;;5049966;28;19924;-65
2023/07/06 00:52:17;;;;;;;;;;;;;;;;;;5047924;28;19966;-65
2023/07/06 00:54:43;;;;;;;;;;;;;;;;;;5031877;28;20378;-65
2023/07/06 00:57:09;;;;;;;;;;;;;;;;;;5042659;28;20011;-65
2023/07/06 00:59:35;;;;;;;;;;;;;;;;;;5050738;28;19921;-66
2023/07/06 01:02:01;;;;;;;;;;;;;;;;;;5043352;28;19944;-65
2023/07/06 01:04:26;;;;;;;;;;;;;;;;;;5041463;28;19947;-65
2023/07/06 01:06:52;;;;;;;;;;;;;;;;;;5049891;28;19976;-65
2023/07/06 01:09:18;;;;;;;;;;;;;;;;;;5050476;28;19928;-65
2023/07/06 01:11:44;;;;;;;;;;;;;;;;;;5052440;28;20332;-65
2023/07/06 01:14:12;;;;;;;;;;;;;;;;;;5040295;28;19994;-65
2023/07/06 01:16:38;;;;;;;;;;;;;;;;;;5047007;28;19924;-65
2023/07/06 01:19:04;;;;;;;;;;;;;;;;;;5036648;28;19925;-65
2023/07/06 01:21:31;;;;;;;;;;;;;;;;;;5047967;28;19925;-65
2023/07/06 01:23:56;;;;;;;;;;;;;;;;;;5052053;28;19955;-65
2023/07/06 01:26:22;;;;;;;;;;;;;;;;;;5051165;28;19999;-65
2023/07/06 01:28:50;;;;;;;;;;;;;;;;;;5054194;28;19921;-65
2023/07/06 01:31:16;;;;;;;;;;;;;;;;;;5052637;28;19924;-65
2023/07/06 01:33:42;;;;;;;;;;;;;;;;;;5051823;28;20321;-65
2023/07/06 01:36:08;;;;;;;;;;;;;;;;;;5051479;28;19924;-65
2023/07/06 01:38:34;;;;;;;;;;;;;;;;;;5051096;28;20513;-65
2023/07/06 01:41:01;;;;;;;;;;;;;;;;;;5047953;28;19925;-65
2023/07/06 01:43:26;;;;;;;;;;;;;;;;;;5051123;28;19943;-66
2023/07/06 01:45:53;;;;;;;;;;;;;;;;;;5048379;28;20350;-65
2023/07/06 01:48:20;;;;;;;;;;;;;;;;;;5044427;28;19921;-65
2023/07/06 01:50:47;;;;;;;;;;;;;;;;;;5054291;28;19925;-65
2023/07/06 01:53:14;;;;;;;;;;;;;;;;;;5054536;28;19925;-66
2023/07/06 01:55:40;;;;;;;;;;;;;;;;;;5054354;28;20366;-65
2023/07/06 01:58:07;;;;;;;;;;;;;;;;;;5054871;28;19921;-66
2023/07/06 02:00:32;;;;;;;;;;;;;;;;;;5054413;28;20299;-65
2023/07/06 02:02:58;;;;;;;;;;;;;;;;;;5050205;28;19975;-65
2023/07/06 02:05:24;;;;;;;;;;;;;;;;;;5051536;28;19921;-65
2023/07/06 02:07:50;;;;;;;;;;;;;;;;;;5053526;28;19948;-65
2023/07/06 02:10:16;;;;;;;;;;;;;;;;;;5053247;28;20019;-65
2023/07/06 02:12:47;;;;;;;;;;;;;;;;;;5053558;28;19925;-65
2023/07/06 02:15:13;;;;;;;;;;;;;;;;;;5050736;28;20346;-65
2023/07/06 02:17:39;;;;;;;;;;;;;;;;;;5051445;28;20012;-65
2023/07/06 02:20:08;;;;;;;;;;;;;;;;;;5048241;28;19921;-65
2023/07/06 02:22:34;;;;;;;;;;;;;;;;;;5045893;28;20025;-66
2023/07/06 02:25:01;;;;;;;;;;;;;;;;;;5051876;28;19920;-65
2023/07/06 02:27:27;;;;;;;;;;;;;;;;;;5050463;28;19924;-65
2023/07/06 02:29:52;;;;;;;;;;;;;;;;;;5048457;28;20011;-65
2023/07/06 02:32:18;;;;;;;;;;;;;;;;;;5045181;28;19920;-65
2023/07/06 02:34:45;;;;;;;;;;;;;;;;;;5049426;28;19982;-66
2023/07/06 02:37:11;;;;;;;;;;;;;;;;;;5048139;28;19929;-65
2023/07/06 02:39:37;;;;;;;;;;;;;;;;;;5047709;28;19929;-66
2023/07/06 02:42:04;;;;;;;;;;;;;;;;;;5047407;28;19928;-66
2023/07/06 02:44:30;;;;;;;;;;;;;;;;;;5048231;28;20317;-65
2023/07/06 02:46:56;;;;;;;;;;;;;;;;;;5043819;28;19972;-65
2023/07/06 02:49:22;;;;;;;;;;;;;;;;;;5050905;28;19921;-65
2023/07/06 02:51:47;;;;;;;;;;;;;;;;;;5049164;28;19924;-65
2023/07/06 02:54:15;;;;;;;;;;;;;;;;;;5050128;28;19932;-65
2023/07/06 02:56:41;;;;;;;;;;;;;;;;;;5051436;28;19929;-65
2023/07/06 02:59:08;;;;;;;;;;;;;;;;;;5050188;28;20348;-65
2023/07/06 03:01:34;;;;;;;;;;;;;;;;;;5046899;28;19944;-65
2023/07/06 03:04:00;;;;;;;;;;;;;;;;;;5050252;28;20321;-65
2023/07/06 03:06:27;;;;;;;;;;;;;;;;;;5051352;28;19925;-65
2023/07/06 03:08:54;;;;;;;;;;;;;;;;;;5049841;28;19928;-65
2023/07/06 03:11:20;;;;;;;;;;;;;;;;;;5051254;28;20138;-65
2023/07/06 03:13:46;;;;;;;;;;;;;;;;;;5050912;28;20007;-65
2023/07/06 03:16:12;;;;;;;;;;;;;;;;;;5049387;28;19925;-65
2023/07/06 03:18:39;;;;;;;;;;;;;;;;;;5046648;28;19986;-65
2023/07/06 03:21:05;;;;;;;;;;;;;;;;;;5048325;28;20074;-66
2023/07/06 03:23:31;;;;;;;;;;;;;;;;;;5051212;28;20012;-65
2023/07/06 03:25:58;;;;;;;;;;;;;;;;;;5048393;28;19921;-65
2023/07/06 03:28:23;;;;;;;;;;;;;;;;;;5050788;28;19924;-65
2023/07/06 03:30:49;;;;;;;;;;;;;;;;;;5049367;28;19928;-66
2023/07/06 03:33:15;;;;;;;;;;;;;;;;;;5049509;28;19921;-65
2023/07/06 03:35:44;;;;;;;;;;;;;;;;;;5046620;28;19920;-65
2023/07/06 03:38:10;;;;;;;;;;;;;;;;;;5049306;28;19925;-65
2023/07/06 03:40:36;;;;;;;;;;;;;;;;;;5046161;28;19929;-65
2023/07/06 03:43:02;;;;;;;;;;;;;;;;;;5045633;28;19921;-66
2023/07/06 03:45:30;;;;;;;;;;;;;;;;;;5048791;28;20656;-66
2023/07/06 03:47:56;;;;;;;;;;;;;;;;;;5048517;28;19925;-65
2023/07/06 03:50:21;;;;;;;;;;;;;;;;;;5046639;28;19925;-65
2023/07/06 03:52:47;;;;;;;;;;;;;;;;;;5052526;28;20398;-65
2023/07/06 03:55:14;;;;;;;;;;;;;;;;;;5051367;28;19921;-65
2023/07/06 03:57:40;;;;;;;;;;;;;;;;;;5050301;28;20310;-65
2023/07/06 04:00:13;;;;;;;;;;;;;;;;;;5049344;28;19925;-65
2023/07/06 04:02:39;;;;;;;;;;;;;;;;;;5040456;28;19928;-65
2023/07/06 04:05:04;;;;;;;;;;;;;;;;;;5049941;28;19928;-65
2023/07/06 04:07:30;;;;;;;;;;;;;;;;;;5046274;28;19935;-65
2023/07/06 04:09:56;;;;;;;;;;;;;;;;;;5049845;28;19921;-65
2023/07/06 04:12:22;;;;;;;;;;;;;;;;;;5051413;28;19936;-65
2023/07/06 04:14:48;;;;;;;;;;;;;;;;;;5049559;28;20684;-65
2023/07/06 04:17:16;;;;;;;;;;;;;;;;;;5046275;28;19978;-65
2023/07/06 04:19:42;;;;;;;;;;;;;;;;;;5046290;28;19932;-65
2023/07/06 04:22:08;;;;;;;;;;;;;;;;;;5049130;28;19928;-66
2023/07/06 04:24:34;;;;;;;;;;;;;;;;;;5047615;28;20398;-65
2023/07/06 04:27:00;;;;;;;;;;;;;;;;;;5049401;28;19960;-65
2023/07/06 04:29:28;;;;;;;;;;;;;;;;;;5030779;28;19920;-65
2023/07/06 04:31:55;;;;;;;;;;;;;;;;;;5047561;28;20338;-65
2023/07/06 04:34:21;;;;;;;;;;;;;;;;;;5049089;28;19927;-65
2023/07/06 04:36:47;;;;;;;;;;;;;;;;;;5051819;28;20008;-65
2023/07/06 04:39:13;;;;;;;;;;;;;;;;;;5050343;28;20004;-65
2023/07/06 04:41:39;;;;;;;;;;;;;;;;;;5045726;28;19921;-65
2023/07/06 04:44:05;;;;;;;;;;;;;;;;;;5041273;28;19920;-65
2023/07/06 04:46:31;;;;;;;;;;;;;;;;;;5048930;28;19936;-65
2023/07/06 04:48:57;;;;;;;;;;;;;;;;;;5050772;28;19921;-65
2023/07/06 04:51:25;;;;;;;;;;;;;;;;;;5051615;28;19990;-65
2023/07/06 04:53:51;;;;;;;;;;;;;;;;;;5051764;28;19921;-65
2023/07/06 04:56:17;;;;;;;;;;;;;;;;;;5047884;28;19975;-65
2023/07/06 04:58:45;;;;;;;;;;;;;;;;;;5051677;28;19924;-65
2023/07/06 05:01:10;;;;;;;;;;;;;;;;;;5041590;28;20290;-65
2023/07/06 05:03:36;;;;;;;;;;;;;;;;;;5045678;28;19925;-65
2023/07/06 05:06:03;;;;;;;;;;;;;;;;;;5051516;28;19929;-65
2023/07/06 05:08:29;;;;;;;;;;;;;;;;;;5051314;28;19928;-65
2023/07/06 05:10:55;;;;;;;;;;;;;;;;;;5051604;28;19928;-65
2023/07/06 05:13:21;;;;;;;;;;;;;;;;;;5051231;28;20324;-65
2023/07/06 05:15:48;;;;;;;;;;;;;;;;;;5030109;28;19921;-65
2023/07/06 05:18:14;;;;;;;;;;;;;;;;;;5046447;28;19920;-65
2023/07/06 05:23:12;;;;;;;;;;;;;;;;;;5009663;28;19930;-65
2023/07/06 05:25:38;;;;;;;;;;;;;;;;;;5007287;28;20021;-65
2023/07/06 05:28:04;;;;;;;;;;;;;;;;;;5005478;28;19925;-65
2023/07/06 05:30:30;;;;;;;;;;;;;;;;;;4992070;28;19932;-65
2023/07/06 05:32:56;;;;;;;;;;;;;;;;;;5011708;28;20371;-65
2023/07/06 05:35:22;;;;;;;;;;;;;;;;;;5011508;28;19929;-65
2023/07/06 05:37:48;;;;;;;;;;;;;;;;;;5002710;28;19921;-65
2023/07/06 05:40:14;;;;;;;;;;;;;;;;;;5011511;28;19967;-65
2023/07/06 05:42:40;;;;;;;;;;;;;;;;;;5011213;28;19961;-65
2023/07/06 05:45:06;;;;;;;;;;;;;;;;;;5008212;28;19988;-65
2023/07/06 05:47:32;;;;;;;;;;;;;;;;;;5010045;28;19930;-65
2023/07/06 05:49:58;;;;;;;;;;;;;;;;;;5012704;28;19975;-65
2023/07/06 05:52:24;;;;;;;;;;;;;;;;;;5014278;28;19921;-65
2023/07/06 05:54:50;;;;;;;;;;;;;;;;;;5011526;28;19921;-66
2023/07/06 05:57:19;;;;;;;;;;;;;;;;;;5010962;28;20275;-66
2023/07/06 05:59:45;;;;;;;;;;;;;;;;;;5010426;28;19925;-66
2023/07/06 06:02:12;;;;;;;;;;;;;;;;;;5013571;28;19921;-66
2023/07/06 06:04:38;;;;;;;;;;;;;;;;;;5014628;28;19929;-66
2023/07/06 06:07:06;;;;;;;;;;;;;;;;;;5013568;28;19925;-66
2023/07/06 06:09:32;;;;;;;;;;;;;;;;;;5003951;28;19929;-66
2023/07/06 06:11:58;;;;;;;;;;;;;;;;;;5008724;28;20004;-66
2023/07/06 06:14:24;;;;;;;;;;;;;;;;;;5012439;28;20008;-66
2023/07/06 06:16:50;;;;;;;;;;;;;;;;;;5011944;28;20350;-66
2023/07/06 06:19:16;;;;;;;;;;;;;;;;;;5013334;28;20032;-66
2023/07/06 06:21:42;;;;;;;;;;;;;;;;;;5012094;28;19925;-66
2023/07/06 06:24:08;;;;;;;;;;;;;;;;;;5014286;28;19925;-67
2023/07/06 06:26:34;;;;;;;;;;;;;;;;;;5012937;28;19929;-67
2023/07/06 06:29:00;;;;;;;;;;;;;;;;;;5012235;28;19922;-67
2023/07/06 06:31:27;;;;;;;;;;;;;;;;;;5012131;28;19972;-67
2023/07/06 06:33:53;;;;;;;;;;;;;;;;;;5012637;28;20286;-67
2023/07/06 06:36:19;;;;;;;;;;;;;;;;;;5012701;28;20015;-66
2023/07/06 06:38:45;;;;;;;;;;;;;;;;;;5012218;28;19929;-66
2023/07/06 06:41:11;;;;;;;;;;;;;;;;;;5011038;28;20367;-66
2023/07/06 06:43:38;;;;;;;;;;;;;;;;;;4991139;28;19975;-69
2023/07/06 06:46:04;;;;;;;;;;;;;;;;;;5007131;28;19939;-67
2023/07/06 06:48:32;;;;;;;;;;;;;;;;;;5007014;28;19921;-66
2023/07/06 06:50:58;;;;;;;;;;;;;;;;;;5008239;28;19921;-66
2023/07/06 06:53:24;;;;;;;;;;;;;;;;;;5012228;28;19921;-67
2023/07/06 06:55:50;;;;;;;;;;;;;;;;;;4994017;28;19987;-66
2023/07/06 06:58:16;;;;;;;;;;;;;;;;;;4990148;28;19929;-66
2023/07/06 07:00:44;;;;;;;;;;;;;;;;;;5011822;28;19968;-67
2023/07/06 07:03:11;;;;;;;;;;;;;;;;;;5006180;28;19976;-67
2023/07/06 07:05:37;;;;;;;;;;;;;;;;;;5001187;28;19933;-66
2023/07/06 07:08:03;;;;;;;;;;;;;;;;;;4994413;28;19933;-67
2023/07/06 07:10:29;;;;;;;;;;;;;;;;;;5011365;28;20000;-66
2023/07/06 07:12:55;;;;;;;;;;;;;;;;;;5011698;28;19980;-66
2023/07/06 07:15:21;;;;;;;;;;;;;;;;;;5010907;28;19932;-66
2023/07/06 07:17:47;;;;;;;;;;;;;;;;;;5000703;28;19944;-67
2023/07/06 07:20:13;;;;;;;;;;;;;;;;;;4999688;28;19921;-67
2023/07/06 07:22:39;;;;;;;;;;;;;;;;;;5006225;28;19930;-66
2023/07/06 07:25:05;;;;;;;;;;;;;;;;;;5009000;28;20318;-66
2023/07/06 07:27:34;;;;;;;;;;;;;;;;;;5006041;28;19979;-67
2023/07/06 07:30:00;;;;;;;;;;;;;;;;;;5008829;28;19921;-66
2023/07/06 07:32:29;;;;;;;;;;;;;;;;;;5010984;28;19936;-67
2023/07/06 07:34:56;;;;;;;;;;;;;;;;;;5001543;28;20069;-67
2023/07/06 07:37:21;;;;;;;;;;;;;;;;;;5007749;28;19921;-66
2023/07/06 07:39:48;;;;;;;;;;;;;;;;;;5013321;28;20314;-66
2023/07/06 07:42:14;;;;;;;;;;;;;;;;;;4994653;28;20290;-66
2023/07/06 07:44:40;;;;;;;;;;;;;;;;;;5011477;28;19930;-66
2023/07/06 07:47:06;;;;;;;;;;;;;;;;;;5009655;28;19983;-66
2023/07/06 07:49:32;;;;;;;;;;;;;;;;;;4994155;28;20367;-66
2023/07/06 07:51:58;;;;;;;;;;;;;;;;;;5009024;28;19927;-66
2023/07/06 07:54:24;;;;;;;;;;;;;;;;;;5011117;28;19928;-66
2023/07/06 07:56:53;;;;;;;;;;;;;;;;;;5013041;28;20044;-66
2023/07/06 07:59:19;;;;;;;;;;;;;;;;;;5012855;28;20000;-67
2023/07/06 08:01:46;;;;;;;;;;;;;;;;;;5009413;28;20466;-67
2023/07/06 08:04:14;;;;;;;;;;;;;;;;;;5008446;28;19921;-67
2023/07/06 08:06:40;;;;;;;;;;;;;;;;;;5009598;28;20000;-66
2023/07/06 08:09:07;;;;;;;;;;;;;;;;;;5007679;28;20522;-67
2023/07/06 08:11:33;;;;;;;;;;;;;;;;;;5010937;28;19971;-67
2023/07/06 08:13:59;;;;;;;;;;;;;;;;;;5009558;28;20540;-66
2023/07/06 08:16:25;;;;;;;;;;;;;;;;;;5010545;28;19922;-66
2023/07/06 08:18:51;;;;;;;;;;;;;;;;;;5012330;28;19953;-66
2023/07/06 08:21:17;;;;;;;;;;;;;;;;;;4990434;28;20387;-66
2023/07/06 08:23:43;;;;;;;;;;;;;;;;;;5010221;28;19929;-66
2023/07/06 08:26:10;;;;;;;;;;;;;;;;;;5011000;28;19929;-66
2023/07/06 08:28:36;;;;;;;;;;;;;;;;;;5007188;28;19929;-66
2023/07/06 08:31:03;;;;;;;;;;;;;;;;;;5008566;28;19968;-66
2023/07/06 08:33:32;;;;;;;;;;;;;;;;;;5010452;28;19944;-66
2023/07/06 08:35:57;;;;;;;;;;;;;;;;;;5009136;28;19925;-66
2023/07/06 08:38:23;;;;;;;;;;;;;;;;;;4991410;28;19944;-66
2023/07/06 08:40:52;;;;;;;;;;;;;;;;;;5000589;28;19936;-66
2023/07/06 08:43:18;;;;;;;;;;;;;;;;;;5003041;28;19932;-66
2023/07/06 08:45:44;;;;;;;;;;;;;;;;;;5008856;28;19922;-66
2023/07/06 08:48:10;;;;;;;;;;;;;;;;;;5008768;28;19979;-66
2023/07/06 08:50:36;;;;;;;;;;;;;;;;;;5004132;28;19929;-66
2023/07/06 08:53:05;;;;;;;;;;;;;;;;;;5009941;28;19925;-67
2023/07/06 08:55:31;;;;;;;;;;;;;;;;;;5003674;28;20014;-66
2023/07/06 08:57:56;;;;;;;;;;;;;;;;;;5005591;28;20049;-67
2023/07/06 09:00:24;;;;;;;;;;;;;;;;;;5002987;28;20400;-66
2023/07/06 09:02:50;;;;;;;;;;;;;;;;;;5002724;28;19927;-67
2023/07/06 09:05:16;;;;;;;;;;;;;;;;;;5010365;28;20417;-67
2023/07/06 09:07:42;;;;;;;;;;;;;;;;;;5006384;28;20020;-66
2023/07/06 09:10:08;;;;;;;;;;;;;;;;;;5005481;28;19921;-66
2023/07/06 09:12:36;;;;;;;;;;;;;;;;;;5005145;28;20704;-66
2023/07/06 09:15:03;;;;;;;;;;;;;;;;;;5004986;28;19931;-66
2023/07/06 09:17:29;;;;;;;;;;;;;;;;;;5006672;28;20381;-67
2023/07/06 09:19:56;;;;;;;;;;;;;;;;;;5004299;28;20347;-66
2023/07/06 09:22:22;;;;;;;;;;;;;;;;;;5007464;28;20012;-66
2023/07/06 09:24:48;;;;;;;;;;;;;;;;;;5009601;28;19921;-67
2023/07/06 09:27:14;;;;;;;;;;;;;;;;;;5015298;28;19968;-65
2023/07/06 09:29:41;;;;;;;;;;;;;;;;;;4995171;28;20370;-64
2023/07/06 09:32:07;;;;;;;;;;;;;;;;;;4994981;28;19927;-64
2023/07/06 09:34:33;;;;;;;;;;;;;;;;;;5009455;28;19929;-64
2023/07/06 09:37:02;;;;;;;;;;;;;;;;;;4995018;28;19925;-64
2023/07/06 09:39:28;;;;;;;;;;;;;;;;;;5002796;28;19979;-64
2023/07/06 09:41:54;;;;;;;;;;;;;;;;;;5013428;28;19921;-64
2023/07/06 09:44:20;;;;;;;;;;;;;;;;;;4997571;28;20425;-64
2023/07/06 09:46:45;;;;;;;;;;;;;;;;;;5014333;28;20192;-64
2023/07/06 09:49:11;;;;;;;;;;;;;;;;;;4978304;28;20136;-64
2023/07/06 09:51:37;;;;;;;;;;;;;;;;;;5011326;28;19921;-64
2023/07/06 09:54:03;;;;;;;;;;;;;;;;;;5015558;28;20283;-64
2023/07/06 09:56:29;;;;;;;;;;;;;;;;;;5013332;28;19929;-65
2023/07/06 09:58:55;;;;;;;;;;;;;;;;;;5014875;28;19922;-64
2023/07/06 10:01:21;;;;;;;;;;;;;;;;;;5012759;28;19928;-64
2023/07/06 10:03:47;;;;;;;;;;;;;;;;;;4997199;28;20283;-64
2023/07/06 10:06:13;;;;;;;;;;;;;;;;;;4996560;28;19922;-64
2023/07/06 10:08:39;;;;;;;;;;;;;;;;;;5008784;28;19999;-64
2023/07/06 10:11:05;;;;;;;;;;;;;;;;;;5010662;28;20016;-64
2023/07/06 10:13:31;;;;;;;;;;;;;;;;;;5012378;28;19932;-64
2023/07/06 10:15:57;;;;;;;;;;;;;;;;;;5012759;28;20260;-64
2023/07/06 10:18:23;;;;;;;;;;;;;;;;;;5014655;28;20012;-64
2023/07/06 10:20:49;;;;;;;;;;;;;;;;;;5014408;28;19929;-64
2023/07/06 10:23:16;;;;;;;;;;;;;;;;;;5011605;28;21392;-64
2023/07/06 10:25:42;;;;;;;;;;;;;;;;;;5006121;28;20008;-64
2023/07/06 10:28:08;;;;;;;;;;;;;;;;;;5006093;28;19925;-64
2023/07/06 10:30:35;;;;;;;;;;;;;;;;;;5013126;28;19922;-64
2023/07/06 10:33:01;;;;;;;;;;;;;;;;;;5011240;28;19922;-64
2023/07/06 10:35:26;;;;;;;;;;;;;;;;;;5012992;28;19956;-64
2023/07/06 10:37:52;;;;;;;;;;;;;;;;;;4993929;28;19921;-64
2023/07/06 10:40:23;;;;;;;;;;;;;;;;;;5013314;28;19956;-64
2023/07/06 10:42:52;;;;;;;;;;;;;;;;;;5012618;28;19956;-64
2023/07/06 10:45:18;;;;;;;;;;;;;;;;;;5011726;28;20280;-64
2023/07/06 10:47:44;;;;;;;;;;;;;;;;;;5009067;28;20027;-65
2023/07/06 10:50:12;;;;;;;;;;;;;;;;;;5003014;28;20335;-65
2023/07/06 10:52:38;;;;;;;;;;;;;;;;;;5010982;28;19926;-64
2023/07/06 10:55:04;;;;;;;;;;;;;;;;;;4990693;28;19928;-64
2023/07/06 10:57:31;;;;;;;;;;;;;;;;;;5010070;28;19979;-64
2023/07/06 10:59:57;;;;;;;;;;;;;;;;;;4995683;28;20343;-65
2023/07/06 11:02:23;;;;;;;;;;;;;;;;;;5011835;28;19921;-64
2023/07/06 11:04:49;;;;;;;;;;;;;;;;;;5009600;28;19929;-65
2023/07/06 11:07:16;;;;;;;;;;;;;;;;;;5011171;28;19925;-64
2023/07/06 11:09:42;;;;;;;;;;;;;;;;;;5012058;28;19921;-64
2023/07/06 11:12:08;;;;;;;;;;;;;;;;;;5011104;28;19947;-64
2023/07/06 11:14:35;;;;;;;;;;;;;;;;;;5008901;28;20029;-64
2023/07/06 11:17:02;;;;;;;;;;;;;;;;;;5011068;28;19925;-64
2023/07/06 11:19:28;;;;;;;;;;;;;;;;;;5012410;28;19921;-64
2023/07/06 11:21:54;;;;;;;;;;;;;;;;;;5012446;28;19936;-64
2023/07/06 11:24:21;;;;;;;;;;;;;;;;;;5012372;28;20338;-64
2023/07/06 11:26:48;;;;;;;;;;;;;;;;;;5011752;28;19926;-64
2023/07/06 11:29:15;;;;;;;;;;;;;;;;;;5012487;28;19925;-64
2023/07/06 11:31:43;;;;;;;;;;;;;;;;;;5007883;28;19926;-64
2023/07/06 11:34:09;;;;;;;;;;;;;;;;;;5001577;28;19926;-65
2023/07/06 11:36:39;;;;;;;;;;;;;;;;;;5010197;28;19926;-64
2023/07/06 11:39:05;;;;;;;;;;;;;;;;;;5011492;28;19929;-64
2023/07/06 11:41:31;;;;;;;;;;;;;;;;;;4999728;28;19925;-65
2023/07/06 11:43:57;;;;;;;;;;;;;;;;;;5007417;28;19922;-66
2023/07/06 11:46:23;;;;;;;;;;;;;;;;;;5008870;28;19932;-66
2023/07/06 11:48:49;;;;;;;;;;;;;;;;;;5006158;28;19925;-65
2023/07/06 11:51:15;;;;;;;;;;;;;;;;;;4984567;28;20315;-66
2023/07/06 11:56:19;;;;;;;;;;;;;;;;;;5010036;28;19929;-66
2023/07/06 11:58:55;;;;;;;;;;;;;;;;;;5012120;28;19933;-66
2023/07/06 12:01:32;;;;;;;;;;;;;;;;;;5008472;28;19933;-66
2023/07/06 12:03:58;;;;;;;;;;;;;;;;;;5005541;28;20042;-66
2023/07/06 12:06:23;;;;;;;;;;;;;;;;;;5005280;28;20776;-66
2023/07/06 12:08:49;;;;;;;;;;;;;;;;;;5006945;28;20379;-66
2023/07/06 12:11:15;;;;;;;;;;;;;;;;;;5006046;28;19953;-66
2023/07/06 12:13:41;;;;;;;;;;;;;;;;;;5009324;28;19921;-67
2023/07/06 12:16:07;;;;;;;;;;;;;;;;;;5008920;28;19928;-66
2023/07/06 12:18:33;;;;;;;;;;;;;;;;;;4987911;28;20056;-66
2023/07/06 12:20:59;;;;;;;;;;;;;;;;;;5004338;28;19925;-66
2023/07/06 12:23:26;;;;;;;;;;;;;;;;;;5009272;28;19944;-67
2023/07/06 12:25:51;;;;;;;;;;;;;;;;;;5005813;28;19971;-66
2023/07/06 12:28:18;;;;;;;;;;;;;;;;;;5006382;28;20316;-66
2023/07/06 12:30:44;;;;;;;;;;;;;;;;;;5008929;28;19928;-66
2023/07/06 12:33:10;;;;;;;;;;;;;;;;;;5012026;28;20705;-66
2023/07/06 12:35:36;;;;;;;;;;;;;;;;;;5007338;28;19933;-66
2023/07/06 12:38:02;;;;;;;;;;;;;;;;;;5011904;28;20398;-66
2023/07/06 12:40:28;;;;;;;;;;;;;;;;;;5009735;28;19943;-66
2023/07/06 12:42:54;;;;;;;;;;;;;;;;;;5007112;28;19930;-66
2023/07/06 12:45:20;;;;;;;;;;;;;;;;;;4986622;28;19929;-66
2023/07/06 12:47:47;;;;;;;;;;;;;;;;;;5001502;28;19929;-66
2023/07/06 12:50:14;;;;;;;;;;;;;;;;;;5007048;28;19925;-66
2023/07/06 12:52:41;;;;;;;;;;;;;;;;;;5004163;28;19926;-67
2023/07/06 12:55:07;;;;;;;;;;;;;;;;;;4989700;28;20313;-66
2023/07/06 12:57:32;;;;;;;;;;;;;;;;;;5008448;28;19928;-66
2023/07/06 12:59:58;;;;;;;;;;;;;;;;;;5009123;28;19933;-67
2023/07/06 13:02:24;;;;;;;;;;;;;;;;;;4989150;28;19979;-67
2023/07/06 13:04:50;;;;;;;;;;;;;;;;;;5010252;28;19936;-67
2023/07/06 13:07:17;;;;;;;;;;;;;;;;;;5011222;28;19929;-67
2023/07/06 13:09:43;;;;;;;;;;;;;;;;;;5011876;28;19957;-66
2023/07/06 13:12:09;;;;;;;;;;;;;;;;;;5013753;28;20334;-66
2023/07/06 13:14:35;;;;;;;;;;;;;;;;;;4973017;28;20371;-66
2023/07/06 13:17:01;;;;;;;;;;;;;;;;;;5006960;28;19997;-67
2023/07/06 13:19:27;;;;;;;;;;;;;;;;;;5010606;28;19936;-66
2023/07/06 13:21:54;;;;;;;;;;;;;;;;;;5010831;28;20015;-66
2023/07/06 13:24:21;;;;;;;;;;;;;;;;;;5013863;28;19925;-66
2023/07/06 13:26:46;;;;;;;;;;;;;;;;;;5011097;28;20013;-66
2023/07/06 13:29:12;;;;;;;;;;;;;;;;;;5005986;28;19937;-66
2023/07/06 13:31:39;;;;;;;;;;;;;;;;;;5012601;28;19926;-66
2023/07/06 13:34:05;;;;;;;;;;;;;;;;;;5003228;28;20052;-65
2023/07/06 13:36:32;;;;;;;;;;;;;;;;;;5014191;28;20021;-66
2023/07/06 13:38:57;;;;;;;;;;;;;;;;;;5011016;28;20020;-66
2023/07/06 13:41:24;;;;;;;;;;;;;;;;;;5014279;28;19928;-66
2023/07/06 13:43:50;;;;;;;;;;;;;;;;;;5009471;28;19933;-66
2023/07/06 13:46:16;;;;;;;;;;;;;;;;;;5013361;28;19930;-66
2023/07/06 13:48:41;;;;;;;;;;;;;;;;;;5011516;28;20407;-66
2023/07/06 13:51:07;;;;;;;;;;;;;;;;;;5004700;28;20012;-66
2023/07/06 13:53:33;;;;;;;;;;;;;;;;;;5006818;28;19999;-66
2023/07/06 13:55:59;;;;;;;;;;;;;;;;;;4994763;28;20314;-66
2023/07/06 13:58:25;;;;;;;;;;;;;;;;;;5009452;28;19925;-66
2023/07/06 14:00:51;;;;;;;;;;;;;;;;;;5011061;28;19922;-66
2023/07/06 14:03:17;;;;;;;;;;;;;;;;;;5012407;28;19948;-66
2023/07/06 14:05:43;;;;;;;;;;;;;;;;;;5012751;28;19933;-66
2023/07/06 14:08:09;;;;;;;;;;;;;;;;;;5007305;28;19941;-66
2023/07/06 14:10:35;;;;;;;;;;;;;;;;;;4990503;28;19921;-66
2023/07/06 14:13:01;;;;;;;;;;;;;;;;;;5002163;28;19926;-66
2023/07/06 14:15:26;;;;;;;;;;;;;;;;;;5010973;28;20295;-66
2023/07/06 14:17:53;;;;;;;;;;;;;;;;;;5011270;28;19922;-66
2023/07/06 14:20:22;;;;;;;;;;;;;;;;;;5010394;28;19925;-65
2023/07/06 14:22:48;;;;;;;;;;;;;;;;;;5010314;28;19929;-65
2023/07/06 14:25:14;;;;;;;;;;;;;;;;;;5011571;28;19922;-65
2023/07/06 14:27:40;;;;;;;;;;;;;;;;;;4990401;28;20295;-66
2023/07/06 14:30:06;;;;;;;;;;;;;;;;;;5011587;28;19936;-66
2023/07/06 14:32:32;;;;;;;;;;;;;;;;;;5010550;28;19940;-66
2023/07/06 14:34:58;;;;;;;;;;;;;;;;;;5011338;28;19922;-66
2023/07/06 14:37:23;;;;;;;;;;;;;;;;;;5010240;28;19945;-66
2023/07/06 14:39:49;;;;;;;;;;;;;;;;;;5009389;28;20394;-66
2023/07/06 14:42:17;;;;;;;;;;;;;;;;;;4993067;28;19925;-66
2023/07/06 14:44:43;;;;;;;;;;;;;;;;;;5010921;28;20350;-66
2023/07/06 14:47:09;;;;;;;;;;;;;;;;;;5008117;28;19925;-66
2023/07/06 14:49:35;;;;;;;;;;;;;;;;;;5012019;28;19929;-66
2023/07/06 14:52:01;;;;;;;;;;;;;;;;;;5011071;28;19972;-66
2023/07/06 14:54:27;;;;;;;;;;;;;;;;;;5011205;28;20014;-66
2023/07/06 14:56:53;;;;;;;;;;;;;;;;;;5012283;28;19957;-66
2023/07/06 14:59:19;;;;;;;;;;;;;;;;;;4993919;28;19921;-66
2023/07/06 15:01:45;;;;;;;;;;;;;;;;;;4985633;28;20004;-66
2023/07/06 15:04:11;;;;;;;;;;;;;;;;;;5007987;28;19972;-66
2023/07/06 15:06:36;;;;;;;;;;;;;;;;;;4994726;28;19935;-66
2023/07/06 15:09:02;;;;;;;;;;;;;;;;;;4992199;28;20339;-67
2023/07/06 15:11:28;;;;;;;;;;;;;;;;;;5011318;28;19931;-66
2023/07/06 15:13:54;;;;;;;;;;;;;;;;;;5010722;28;19925;-66
2023/07/06 15:16:20;;;;;;;;;;;;;;;;;;5006882;28;19922;-66
2023/07/06 15:18:46;;;;;;;;;;;;;;;;;;5009523;28;19980;-66
2023/07/06 15:21:12;;;;;;;;;;;;;;;;;;4992480;28;20575;-66
2023/07/06 15:23:38;;;;;;;;;;;;;;;;;;5005828;28;19972;-66
2023/07/06 15:26:04;;;;;;;;;;;;;;;;;;5006230;28;19925;-66
2023/07/06 15:28:30;;;;;;;;;;;;;;;;;;4992844;28;19972;-66
2023/07/06 15:30:56;;;;;;;;;;;;;;;;;;5009137;28;19929;-66
2023/07/06 15:33:22;;;;;;;;;;;;;;;;;;5004647;28;19959;-66
2023/07/06 15:35:48;;;;;;;;;;;;;;;;;;5010093;28;20318;-66
2023/07/06 15:38:14;;;;;;;;;;;;;;;;;;5007775;28;19921;-66
2023/07/06 15:40:39;;;;;;;;;;;;;;;;;;4990758;28;19929;-66
2023/07/06 15:43:05;;;;;;;;;;;;;;;;;;5006984;28;19951;-66
2023/07/06 15:45:31;;;;;;;;;;;;;;;;;;5001518;28;19932;-67
2023/07/06 15:47:57;;;;;;;;;;;;;;;;;;5007003;28;20953;-67
2023/07/06 15:50:23;;;;;;;;;;;;;;;;;;5009522;28;19925;-66
2023/07/06 15:52:49;;;;;;;;;;;;;;;;;;5009380;28;19921;-66
2023/07/06 15:55:15;;;;;;;;;;;;;;;;;;5005510;28;19960;-66
2023/07/06 15:57:41;;;;;;;;;;;;;;;;;;5010313;28;19939;-66
2023/07/06 16:00:07;;;;;;;;;;;;;;;;;;5006597;28;20437;-66
2023/07/06 16:02:33;;;;;;;;;;;;;;;;;;5010968;28;19922;-66
2023/07/06 16:04:58;;;;;;;;;;;;;;;;;;5008240;28;20322;-66
2023/07/06 16:07:24;;;;;;;;;;;;;;;;;;5010737;28;19934;-66
2023/07/06 16:09:50;;;;;;;;;;;;;;;;;;5008983;28;19964;-66
2023/07/06 16:12:16;;;;;;;;;;;;;;;;;;5009128;28;20287;-66
2023/07/06 16:14:42;;;;;;;;;;;;;;;;;;5004453;28;19929;-67
2023/07/06 16:17:08;;;;;;;;;;;;;;;;;;5006248;28;19922;-66
2023/07/06 16:19:34;;;;;;;;;;;;;;;;;;5006796;28;19925;-67
2023/07/06 16:22:00;;;;;;;;;;;;;;;;;;5001783;28;19968;-67
2023/07/06 16:24:26;;;;;;;;;;;;;;;;;;4989784;28;19922;-66
2023/07/06 16:26:51;;;;;;;;;;;;;;;;;;4985233;28;19933;-66
2023/07/06 16:29:17;;;;;;;;;;;;;;;;;;5004345;28;20311;-66
2023/07/06 16:31:43;;;;;;;;;;;;;;;;;;4999893;28;19926;-66
2023/07/06 16:34:09;;;;;;;;;;;;;;;;;;4988084;28;20012;-66
2023/07/06 16:36:35;;;;;;;;;;;;;;;;;;4999405;28;20457;-66
2023/07/06 16:39:01;;;;;;;;;;;;;;;;;;5002574;28;19933;-66
2023/07/06 16:41:29;;;;;;;;;;;;;;;;;;4999599;28;19933;-66
2023/07/06 16:43:55;;;;;;;;;;;;;;;;;;4999152;28;19926;-66